sensor_id;sensor_type;location;lat;lon;timestamp;P1;durP1;ratioP1;P2;durP2;ratioP2
21943;SDS011;11136;48.778;9.126;2022-09-17T00:00:17;2.00;;;0.60;;
21943;SDS011;11136;48.778;9.126;2022-09-17T00:02:43;1.15;;;0.88;;
21943;SDS011;11136;48.778;9.126;2022-09-17T00:05:10;1.20;;;0.82;;
21943;SDS011;11136;48.778;9.126;2022-09-17T00:07:36;0.70;;;0.65;;
21943;SDS011;11136;48.778;9.126;2022-09-17T00:10:01;4.50;;;0.80;;
21943;SDS011;11136;48.778;9.126;2022-09-17T00:12:28;0.82;;;0.70;;
21943;SDS011;11136;48.778;9.126;2022-09-17T00:14:54;2.30;;;0.80;;
21943;SDS011;11136;48.778;9.126;2022-09-17T00:17:20;0.88;;;0.63;;
21943;SDS011;11136;48.778;9.126;2022-09-17T00:19:45;1.08;;;0.70;;
21943;SDS011;11136;48.778;9.126;2022-09-17T00:22:11;2.53;;;0.98;;
21943;SDS011;11136;48.778;9.126;2022-09-17T00:24:36;2.58;;;0.63;;
21943;SDS011;11136;48.778;9.126;2022-09-17T00:27:02;2.00;;;1.13;;
21943;SDS011;11136;48.778;9.126;2022-09-17T00:29:27;1.25;;;0.70;;
21943;SDS011;11136;48.778;9.126;2022-09-17T00:31:53;1.83;;;1.20;;
21943;SDS011;11136;48.778;9.126;2022-09-17T00:34:18;1.08;;;0.65;;
21943;SDS011;11136;48.778;9.126;2022-09-17T00:36:44;1.35;;;0.70;;
21943;SDS011;11136;48.778;9.126;2022-09-17T00:39:10;1.13;;;0.90;;
21943;SDS011;11136;48.778;9.126;2022-09-17T00:41:36;1.65;;;0.75;;
21943;SDS011;11136;48.778;9.126;2022-09-17T00:47:06;3.25;;;0.90;;
21943;SDS011;11136;48.778;9.126;2022-09-17T00:49:44;1.65;;;0.80;;
21943;SDS011;11136;48.778;9.126;2022-09-17T00:52:13;1.08;;;0.80;;
21943;SDS011;11136;48.778;9.126;2022-09-17T00:54:44;4.25;;;1.45;;
21943;SDS011;11136;48.778;9.126;2022-09-17T00:57:13;3.33;;;1.00;;
21943;SDS011;11136;48.778;9.126;2022-09-17T00:59:39;4.00;;;1.10;;
21943;SDS011;11136;48.778;9.126;2022-09-17T01:02:05;5.32;;;1.45;;
21943;SDS011;11136;48.778;9.126;2022-09-17T01:04:32;1.42;;;1.10;;
21943;SDS011;11136;48.778;9.126;2022-09-17T01:12:56;3.00;;;1.23;;
21943;SDS011;11136;48.778;9.126;2022-09-17T01:15:51;4.97;;;0.95;;
21943;SDS011;11136;48.778;9.126;2022-09-17T01:31:56;3.20;;;1.15;;
21943;SDS011;11136;48.778;9.126;2022-09-17T01:37:18;4.55;;;1.10;;
21943;SDS011;11136;48.778;9.126;2022-09-17T01:40:07;2.35;;;0.80;;
21943;SDS011;11136;48.778;9.126;2022-09-17T01:42:46;1.55;;;0.95;;
21943;SDS011;11136;48.778;9.126;2022-09-17T01:47:49;5.00;;;1.02;;
21943;SDS011;11136;48.778;9.126;2022-09-17T01:50:23;1.55;;;1.38;;
21943;SDS011;11136;48.778;9.126;2022-09-17T01:52:52;2.83;;;1.00;;
21943;SDS011;11136;48.778;9.126;2022-09-17T01:55:21;1.48;;;1.13;;
21943;SDS011;11136;48.778;9.126;2022-09-17T01:57:54;2.88;;;1.40;;
21943;SDS011;11136;48.778;9.126;2022-09-17T02:00:24;2.60;;;0.90;;
21943;SDS011;11136;48.778;9.126;2022-09-17T02:03:01;3.50;;;1.33;;
21943;SDS011;11136;48.778;9.126;2022-09-17T02:05:49;1.85;;;1.10;;
21943;SDS011;11136;48.778;9.126;2022-09-17T02:08:26;1.38;;;1.02;;
21943;SDS011;11136;48.778;9.126;2022-09-17T02:11:08;3.13;;;1.35;;
21943;SDS011;11136;48.778;9.126;2022-09-17T02:13:43;2.47;;;1.02;;
21943;SDS011;11136;48.778;9.126;2022-09-17T02:16:21;1.90;;;1.10;;
21943;SDS011;11136;48.778;9.126;2022-09-17T02:19:01;4.80;;;1.30;;
21943;SDS011;11136;48.778;9.126;2022-09-17T02:24:11;7.15;;;1.48;;
21943;SDS011;11136;48.778;9.126;2022-09-17T02:26:55;4.47;;;1.10;;
21943;SDS011;11136;48.778;9.126;2022-09-17T02:29:24;2.75;;;1.00;;
21943;SDS011;11136;48.778;9.126;2022-09-17T02:31:56;4.53;;;1.15;;
21943;SDS011;11136;48.778;9.126;2022-09-17T02:34:22;2.97;;;1.02;;
21943;SDS011;11136;48.778;9.126;2022-09-17T02:36:49;3.92;;;1.15;;
21943;SDS011;11136;48.778;9.126;2022-09-17T02:39:14;1.45;;;1.02;;
21943;SDS011;11136;48.778;9.126;2022-09-17T02:50:17;3.55;;;1.73;;
21943;SDS011;11136;48.778;9.126;2022-09-17T02:53:07;2.13;;;1.02;;
21943;SDS011;11136;48.778;9.126;2022-09-17T02:59:23;5.07;;;2.28;;
21943;SDS011;11136;48.778;9.126;2022-09-17T03:05:03;4.68;;;1.30;;
21943;SDS011;11136;48.778;9.126;2022-09-17T03:07:31;6.93;;;1.48;;
21943;SDS011;11136;48.778;9.126;2022-09-17T03:09:57;2.85;;;1.17;;
21943;SDS011;11136;48.778;9.126;2022-09-17T03:12:22;1.52;;;0.82;;
21943;SDS011;11136;48.778;9.126;2022-09-17T03:14:49;3.70;;;1.13;;
21943;SDS011;11136;48.778;9.126;2022-09-17T03:17:14;2.15;;;1.30;;
21943;SDS011;11136;48.778;9.126;2022-09-17T03:19:40;3.53;;;1.63;;
21943;SDS011;11136;48.778;9.126;2022-09-17T03:22:05;7.40;;;1.25;;
21943;SDS011;11136;48.778;9.126;2022-09-17T03:24:31;2.50;;;1.30;;
21943;SDS011;11136;48.778;9.126;2022-09-17T03:26:56;3.40;;;0.90;;
21943;SDS011;11136;48.778;9.126;2022-09-17T03:29:22;3.97;;;1.30;;
21943;SDS011;11136;48.778;9.126;2022-09-17T03:31:48;3.08;;;1.00;;
21943;SDS011;11136;48.778;9.126;2022-09-17T03:34:13;3.97;;;1.25;;
21943;SDS011;11136;48.778;9.126;2022-09-17T03:36:39;5.63;;;1.75;;
21943;SDS011;11136;48.778;9.126;2022-09-17T03:39:04;4.70;;;1.15;;
21943;SDS011;11136;48.778;9.126;2022-09-17T03:41:30;3.50;;;1.10;;
21943;SDS011;11136;48.778;9.126;2022-09-17T03:43:56;7.97;;;1.95;;
21943;SDS011;11136;48.778;9.126;2022-09-17T03:46:21;4.50;;;1.20;;
21943;SDS011;11136;48.778;9.126;2022-09-17T03:48:47;7.47;;;1.23;;
21943;SDS011;11136;48.778;9.126;2022-09-17T03:51:12;9.05;;;1.42;;
21943;SDS011;11136;48.778;9.126;2022-09-17T03:53:38;5.75;;;1.30;;
21943;SDS011;11136;48.778;9.126;2022-09-17T03:56:04;3.33;;;1.33;;
21943;SDS011;11136;48.778;9.126;2022-09-17T03:58:31;4.72;;;1.35;;
21943;SDS011;11136;48.778;9.126;2022-09-17T04:00:57;2.47;;;1.17;;
21943;SDS011;11136;48.778;9.126;2022-09-17T04:03:23;2.90;;;1.63;;
21943;SDS011;11136;48.778;9.126;2022-09-17T04:05:49;9.75;;;1.83;;
21943;SDS011;11136;48.778;9.126;2022-09-17T04:08:15;7.47;;;1.85;;
21943;SDS011;11136;48.778;9.126;2022-09-17T04:10:41;8.75;;;1.45;;
21943;SDS011;11136;48.778;9.126;2022-09-17T04:13:08;5.22;;;1.48;;
21943;SDS011;11136;48.778;9.126;2022-09-17T04:15:34;3.95;;;0.98;;
21943;SDS011;11136;48.778;9.126;2022-09-17T04:18:00;6.80;;;1.55;;
21943;SDS011;11136;48.778;9.126;2022-09-17T04:20:25;9.52;;;1.27;;
21943;SDS011;11136;48.778;9.126;2022-09-17T04:22:51;7.25;;;1.33;;
21943;SDS011;11136;48.778;9.126;2022-09-17T04:25:17;2.35;;;0.98;;
21943;SDS011;11136;48.778;9.126;2022-09-17T04:27:43;8.20;;;1.10;;
21943;SDS011;11136;48.778;9.126;2022-09-17T04:30:10;6.90;;;1.02;;
21943;SDS011;11136;48.778;9.126;2022-09-17T04:32:36;2.58;;;1.10;;
21943;SDS011;11136;48.778;9.126;2022-09-17T04:35:02;4.43;;;1.45;;
21943;SDS011;11136;48.778;9.126;2022-09-17T04:37:28;3.05;;;1.00;;
21943;SDS011;11136;48.778;9.126;2022-09-17T04:39:54;4.20;;;1.50;;
21943;SDS011;11136;48.778;9.126;2022-09-17T04:42:19;3.78;;;1.20;;
21943;SDS011;11136;48.778;9.126;2022-09-17T04:44:45;5.53;;;1.52;;
21943;SDS011;11136;48.778;9.126;2022-09-17T04:47:11;4.57;;;1.42;;
21943;SDS011;11136;48.778;9.126;2022-09-17T04:49:36;5.53;;;1.58;;
21943;SDS011;11136;48.778;9.126;2022-09-17T04:52:02;6.97;;;1.55;;
21943;SDS011;11136;48.778;9.126;2022-09-17T04:54:28;4.68;;;1.75;;
21943;SDS011;11136;48.778;9.126;2022-09-17T04:56:53;6.22;;;1.33;;
21943;SDS011;11136;48.778;9.126;2022-09-17T04:59:19;5.03;;;1.35;;
21943;SDS011;11136;48.778;9.126;2022-09-17T05:01:44;6.10;;;1.17;;
21943;SDS011;11136;48.778;9.126;2022-09-17T05:04:10;4.82;;;1.48;;
21943;SDS011;11136;48.778;9.126;2022-09-17T05:06:36;4.28;;;1.20;;
21943;SDS011;11136;48.778;9.126;2022-09-17T05:09:01;7.43;;;1.73;;
21943;SDS011;11136;48.778;9.126;2022-09-17T05:11:27;2.47;;;1.25;;
21943;SDS011;11136;48.778;9.126;2022-09-17T05:13:53;3.78;;;1.30;;
21943;SDS011;11136;48.778;9.126;2022-09-17T05:16:19;9.52;;;2.17;;
21943;SDS011;11136;48.778;9.126;2022-09-17T05:18:45;10.70;;;2.13;;
21943;SDS011;11136;48.778;9.126;2022-09-17T05:21:13;6.32;;;1.80;;
21943;SDS011;11136;48.778;9.126;2022-09-17T05:23:39;4.45;;;2.03;;
21943;SDS011;11136;48.778;9.126;2022-09-17T05:26:04;3.85;;;1.63;;
21943;SDS011;11136;48.778;9.126;2022-09-17T05:28:30;2.55;;;1.35;;
21943;SDS011;11136;48.778;9.126;2022-09-17T05:30:59;4.50;;;1.25;;
21943;SDS011;11136;48.778;9.126;2022-09-17T05:33:25;3.50;;;1.42;;
21943;SDS011;11136;48.778;9.126;2022-09-17T05:35:51;6.60;;;1.85;;
21943;SDS011;11136;48.778;9.126;2022-09-17T05:38:17;5.53;;;2.65;;
21943;SDS011;11136;48.778;9.126;2022-09-17T05:40:43;5.43;;;1.92;;
21943;SDS011;11136;48.778;9.126;2022-09-17T05:43:09;6.20;;;1.23;;
21943;SDS011;11136;48.778;9.126;2022-09-17T05:45:35;7.30;;;1.85;;
21943;SDS011;11136;48.778;9.126;2022-09-17T05:48:02;10.10;;;1.77;;
21943;SDS011;11136;48.778;9.126;2022-09-17T05:50:29;5.57;;;1.27;;
21943;SDS011;11136;48.778;9.126;2022-09-17T05:52:56;4.30;;;1.90;;
21943;SDS011;11136;48.778;9.126;2022-09-17T05:55:22;3.90;;;1.50;;
21943;SDS011;11136;48.778;9.126;2022-09-17T05:57:48;4.88;;;1.75;;
21943;SDS011;11136;48.778;9.126;2022-09-17T06:00:14;4.70;;;1.60;;
21943;SDS011;11136;48.778;9.126;2022-09-17T06:02:40;5.07;;;1.65;;
21943;SDS011;11136;48.778;9.126;2022-09-17T06:05:06;20.83;;;1.90;;
21943;SDS011;11136;48.778;9.126;2022-09-17T06:07:36;6.93;;;2.13;;
21943;SDS011;11136;48.778;9.126;2022-09-17T06:10:03;4.60;;;1.92;;
21943;SDS011;11136;48.778;9.126;2022-09-17T06:12:30;6.40;;;1.35;;
21943;SDS011;11136;48.778;9.126;2022-09-17T06:14:55;4.97;;;1.73;;
21943;SDS011;11136;48.778;9.126;2022-09-17T06:17:21;10.02;;;1.70;;
21943;SDS011;11136;48.778;9.126;2022-09-17T06:19:46;7.05;;;1.40;;
21943;SDS011;11136;48.778;9.126;2022-09-17T06:22:12;5.35;;;2.03;;
21943;SDS011;11136;48.778;9.126;2022-09-17T06:24:38;12.02;;;2.08;;
21943;SDS011;11136;48.778;9.126;2022-09-17T06:27:03;6.50;;;2.40;;
21943;SDS011;11136;48.778;9.126;2022-09-17T06:29:29;7.28;;;2.10;;
21943;SDS011;11136;48.778;9.126;2022-09-17T06:31:55;4.95;;;1.75;;
21943;SDS011;11136;48.778;9.126;2022-09-17T06:34:20;8.45;;;2.40;;
21943;SDS011;11136;48.778;9.126;2022-09-17T06:36:47;4.75;;;1.58;;
21943;SDS011;11136;48.778;9.126;2022-09-17T06:39:12;7.82;;;1.80;;
21943;SDS011;11136;48.778;9.126;2022-09-17T06:41:40;9.60;;;2.30;;
21943;SDS011;11136;48.778;9.126;2022-09-17T06:44:07;6.15;;;1.98;;
21943;SDS011;11136;48.778;9.126;2022-09-17T06:46:32;4.97;;;2.00;;
21943;SDS011;11136;48.778;9.126;2022-09-17T06:48:58;5.22;;;1.70;;
21943;SDS011;11136;48.778;9.126;2022-09-17T06:51:23;6.05;;;1.85;;
21943;SDS011;11136;48.778;9.126;2022-09-17T06:53:49;2.63;;;1.20;;
21943;SDS011;11136;48.778;9.126;2022-09-17T06:56:14;4.60;;;1.30;;
21943;SDS011;11136;48.778;9.126;2022-09-17T06:58:40;5.30;;;1.73;;
21943;SDS011;11136;48.778;9.126;2022-09-17T07:01:07;4.45;;;1.80;;
21943;SDS011;11136;48.778;9.126;2022-09-17T07:03:34;6.38;;;1.98;;
21943;SDS011;11136;48.778;9.126;2022-09-17T07:06:00;12.30;;;2.15;;
21943;SDS011;11136;48.778;9.126;2022-09-17T07:08:25;2.10;;;1.35;;
21943;SDS011;11136;48.778;9.126;2022-09-17T07:10:57;2.28;;;1.63;;
21943;SDS011;11136;48.778;9.126;2022-09-17T07:13:23;3.75;;;1.45;;
21943;SDS011;11136;48.778;9.126;2022-09-17T07:15:53;6.35;;;1.60;;
21943;SDS011;11136;48.778;9.126;2022-09-17T07:18:23;1.70;;;1.30;;
21943;SDS011;11136;48.778;9.126;2022-09-17T07:20:56;3.95;;;1.73;;
21943;SDS011;11136;48.778;9.126;2022-09-17T07:23:29;2.92;;;1.35;;
21943;SDS011;11136;48.778;9.126;2022-09-17T07:25:57;1.98;;;1.75;;
21943;SDS011;11136;48.778;9.126;2022-09-17T07:28:26;4.60;;;1.65;;
21943;SDS011;11136;48.778;9.126;2022-09-17T07:30:53;5.28;;;1.67;;
21943;SDS011;11136;48.778;9.126;2022-09-17T07:33:20;5.30;;;1.58;;
21943;SDS011;11136;48.778;9.126;2022-09-17T07:35:52;8.15;;;1.85;;
21943;SDS011;11136;48.778;9.126;2022-09-17T07:38:21;3.22;;;1.80;;
21943;SDS011;11136;48.778;9.126;2022-09-17T07:43:26;6.75;;;2.17;;
21943;SDS011;11136;48.778;9.126;2022-09-17T07:45:55;3.90;;;1.80;;
21943;SDS011;11136;48.778;9.126;2022-09-17T07:48:21;5.85;;;1.98;;
21943;SDS011;11136;48.778;9.126;2022-09-17T07:50:47;5.82;;;1.60;;
21943;SDS011;11136;48.778;9.126;2022-09-17T07:53:13;7.07;;;1.67;;
21943;SDS011;11136;48.778;9.126;2022-09-17T07:55:38;3.42;;;1.50;;
21943;SDS011;11136;48.778;9.126;2022-09-17T07:58:04;1.85;;;1.25;;
21943;SDS011;11136;48.778;9.126;2022-09-17T08:00:30;3.53;;;1.70;;
21943;SDS011;11136;48.778;9.126;2022-09-17T08:02:56;3.78;;;1.50;;
21943;SDS011;11136;48.778;9.126;2022-09-17T08:05:22;2.65;;;1.85;;
21943;SDS011;11136;48.778;9.126;2022-09-17T08:07:49;3.00;;;1.50;;
21943;SDS011;11136;48.778;9.126;2022-09-17T08:10:19;2.40;;;1.30;;
21943;SDS011;11136;48.778;9.126;2022-09-17T08:15:30;4.20;;;1.77;;
21943;SDS011;11136;48.778;9.126;2022-09-17T08:17:56;2.55;;;1.77;;
21943;SDS011;11136;48.778;9.126;2022-09-17T08:20:23;4.57;;;1.88;;
21943;SDS011;11136;48.778;9.126;2022-09-17T08:22:56;5.13;;;1.70;;
21943;SDS011;11136;48.778;9.126;2022-09-17T08:25:22;3.55;;;1.67;;
21943;SDS011;11136;48.778;9.126;2022-09-17T08:27:51;6.43;;;2.50;;
21943;SDS011;11136;48.778;9.126;2022-09-17T08:30:18;6.63;;;2.13;;
21943;SDS011;11136;48.778;9.126;2022-09-17T08:32:43;4.00;;;1.83;;
21943;SDS011;11136;48.778;9.126;2022-09-17T08:35:09;5.53;;;1.95;;
21943;SDS011;11136;48.778;9.126;2022-09-17T08:37:35;4.78;;;1.70;;
21943;SDS011;11136;48.778;9.126;2022-09-17T08:40:01;6.35;;;2.17;;
21943;SDS011;11136;48.778;9.126;2022-09-17T08:43:10;4.95;;;1.70;;
21943;SDS011;11136;48.778;9.126;2022-09-17T08:45:20;6.45;;;2.60;;
21943;SDS011;11136;48.778;9.126;2022-09-17T08:47:46;8.95;;;2.33;;
21943;SDS011;11136;48.778;9.126;2022-09-17T08:50:13;5.72;;;2.13;;
21943;SDS011;11136;48.778;9.126;2022-09-17T08:58:38;7.22;;;2.30;;
21943;SDS011;11136;48.778;9.126;2022-09-17T09:01:34;5.78;;;2.55;;
21943;SDS011;11136;48.778;9.126;2022-09-17T09:07:22;8.32;;;2.80;;
21943;SDS011;11136;48.778;9.126;2022-09-17T09:10:01;8.07;;;2.40;;
21943;SDS011;11136;48.778;9.126;2022-09-17T09:12:30;7.57;;;1.77;;
21943;SDS011;11136;48.778;9.126;2022-09-17T09:15:00;6.05;;;2.28;;
21943;SDS011;11136;48.778;9.126;2022-09-17T09:17:37;11.43;;;2.70;;
21943;SDS011;11136;48.778;9.126;2022-09-17T09:20:13;8.20;;;2.10;;
21943;SDS011;11136;48.778;9.126;2022-09-17T09:22:47;8.45;;;2.65;;
21943;SDS011;11136;48.778;9.126;2022-09-17T09:25:20;10.70;;;3.15;;
21943;SDS011;11136;48.778;9.126;2022-09-17T09:33:14;11.00;;;2.42;;
21943;SDS011;11136;48.778;9.126;2022-09-17T09:35:43;8.13;;;2.55;;
21943;SDS011;11136;48.778;9.126;2022-09-17T09:38:28;9.48;;;2.45;;
21943;SDS011;11136;48.778;9.126;2022-09-17T09:43:40;5.10;;;1.95;;
21943;SDS011;11136;48.778;9.126;2022-09-17T09:49:16;8.93;;;2.47;;
21943;SDS011;11136;48.778;9.126;2022-09-17T10:02:58;6.72;;;2.53;;
21943;SDS011;11136;48.778;9.126;2022-09-17T10:05:39;4.10;;;1.75;;
21943;SDS011;11136;48.778;9.126;2022-09-17T10:08:15;7.43;;;2.40;;
21943;SDS011;11136;48.778;9.126;2022-09-17T10:10:52;6.80;;;2.20;;
21943;SDS011;11136;48.778;9.126;2022-09-17T10:13:27;8.52;;;2.38;;
21943;SDS011;11136;48.778;9.126;2022-09-17T10:15:55;7.80;;;2.00;;
21943;SDS011;11136;48.778;9.126;2022-09-17T10:18:22;5.60;;;2.05;;
21943;SDS011;11136;48.778;9.126;2022-09-17T10:20:50;9.13;;;1.88;;
21943;SDS011;11136;48.778;9.126;2022-09-17T10:23:20;8.45;;;1.95;;
21943;SDS011;11136;48.778;9.126;2022-09-17T10:25:46;6.50;;;1.85;;
21943;SDS011;11136;48.778;9.126;2022-09-17T10:28:32;6.90;;;1.60;;
21943;SDS011;11136;48.778;9.126;2022-09-17T10:31:08;6.95;;;1.77;;
21943;SDS011;11136;48.778;9.126;2022-09-17T10:33:37;8.27;;;1.88;;
21943;SDS011;11136;48.778;9.126;2022-09-17T10:36:38;2.95;;;1.45;;
21943;SDS011;11136;48.778;9.126;2022-09-17T10:42:15;4.78;;;1.30;;
21943;SDS011;11136;48.778;9.126;2022-09-17T10:44:52;5.63;;;1.52;;
21943;SDS011;11136;48.778;9.126;2022-09-17T10:49:56;4.53;;;1.83;;
21943;SDS011;11136;48.778;9.126;2022-09-17T10:52:40;5.05;;;2.00;;
21943;SDS011;11136;48.778;9.126;2022-09-17T10:58:22;4.27;;;1.70;;
21943;SDS011;11136;48.778;9.126;2022-09-17T11:01:31;7.00;;;1.58;;
21943;SDS011;11136;48.778;9.126;2022-09-17T11:07:17;6.15;;;1.60;;
21943;SDS011;11136;48.778;9.126;2022-09-17T11:25:57;6.35;;;2.08;;
21943;SDS011;11136;48.778;9.126;2022-09-17T11:28:51;7.63;;;1.60;;
21943;SDS011;11136;48.778;9.126;2022-09-17T11:31:29;16.88;;;1.77;;
21943;SDS011;11136;48.778;9.126;2022-09-17T11:34:14;3.53;;;1.58;;
21943;SDS011;11136;48.778;9.126;2022-09-17T11:36:59;8.48;;;1.40;;
21943;SDS011;11136;48.778;9.126;2022-09-17T11:42:13;3.42;;;1.10;;
21943;SDS011;11136;48.778;9.126;2022-09-17T11:44:50;3.47;;;1.10;;
21943;SDS011;11136;48.778;9.126;2022-09-17T11:47:33;4.75;;;1.95;;
21943;SDS011;11136;48.778;9.126;2022-09-17T11:50:17;2.63;;;0.75;;
21943;SDS011;11136;48.778;9.126;2022-09-17T11:52:53;2.88;;;0.80;;
21943;SDS011;11136;48.778;9.126;2022-09-17T11:55:32;4.30;;;1.88;;
21943;SDS011;11136;48.778;9.126;2022-09-17T11:57:59;5.63;;;1.67;;
21943;SDS011;11136;48.778;9.126;2022-09-17T12:00:34;3.15;;;0.93;;
21943;SDS011;11136;48.778;9.126;2022-09-17T12:03:15;3.70;;;1.20;;
21943;SDS011;11136;48.778;9.126;2022-09-17T12:05:55;3.40;;;1.50;;
21943;SDS011;11136;48.778;9.126;2022-09-17T12:11:14;6.47;;;1.33;;
21943;SDS011;11136;48.778;9.126;2022-09-17T12:13:48;4.63;;;1.40;;
21943;SDS011;11136;48.778;9.126;2022-09-17T12:16:21;3.90;;;1.30;;
21943;SDS011;11136;48.778;9.126;2022-09-17T12:21:32;4.15;;;1.35;;
21943;SDS011;11136;48.778;9.126;2022-09-17T12:24:29;1.90;;;1.00;;
21943;SDS011;11136;48.778;9.126;2022-09-17T12:27:08;3.67;;;1.38;;
21943;SDS011;11136;48.778;9.126;2022-09-17T12:30:07;3.67;;;1.25;;
21943;SDS011;11136;48.778;9.126;2022-09-17T12:41:17;10.18;;;1.40;;
21943;SDS011;11136;48.778;9.126;2022-09-17T12:47:24;1.95;;;1.10;;
21943;SDS011;11136;48.778;9.126;2022-09-17T12:50:03;1.42;;;0.65;;
21943;SDS011;11136;48.778;9.126;2022-09-17T12:55:19;3.50;;;1.63;;
21943;SDS011;11136;48.778;9.126;2022-09-17T12:57:55;4.30;;;0.98;;
21943;SDS011;11136;48.778;9.126;2022-09-17T13:00:39;4.63;;;1.00;;
21943;SDS011;11136;48.778;9.126;2022-09-17T13:03:17;2.28;;;1.20;;
21943;SDS011;11136;48.778;9.126;2022-09-17T13:08:34;5.57;;;1.70;;
21943;SDS011;11136;48.778;9.126;2022-09-17T13:11:20;3.92;;;1.45;;
21943;SDS011;11136;48.778;9.126;2022-09-17T13:17:08;2.97;;;1.30;;
21943;SDS011;11136;48.778;9.126;2022-09-17T13:22:27;5.38;;;1.70;;
21943;SDS011;11136;48.778;9.126;2022-09-17T13:27:36;4.72;;;1.25;;
21943;SDS011;11136;48.778;9.126;2022-09-17T13:30:06;3.20;;;1.20;;
21943;SDS011;11136;48.778;9.126;2022-09-17T13:37:41;1.58;;;0.93;;
21943;SDS011;11136;48.778;9.126;2022-09-17T13:43:04;1.08;;;0.60;;
21943;SDS011;11136;48.778;9.126;2022-09-17T13:48:25;2.35;;;0.88;;
21943;SDS011;11136;48.778;9.126;2022-09-17T13:50:53;1.85;;;0.50;;
21943;SDS011;11136;48.778;9.126;2022-09-17T13:53:23;2.28;;;0.85;;
21943;SDS011;11136;48.778;9.126;2022-09-17T13:55:52;2.45;;;0.88;;
21943;SDS011;11136;48.778;9.126;2022-09-17T14:00:45;3.42;;;1.17;;
21943;SDS011;11136;48.778;9.126;2022-09-17T14:13:48;4.05;;;1.00;;
21943;SDS011;11136;48.778;9.126;2022-09-17T14:19:37;1.63;;;0.80;;
21943;SDS011;11136;48.778;9.126;2022-09-17T14:35:11;3.25;;;1.15;;
21943;SDS011;11136;48.778;9.126;2022-09-17T14:38:16;2.08;;;1.13;;
21943;SDS011;11136;48.778;9.126;2022-09-17T14:40:54;1.77;;;0.82;;
21943;SDS011;11136;48.778;9.126;2022-09-17T14:46:17;3.58;;;0.90;;
21943;SDS011;11136;48.778;9.126;2022-09-17T14:48:48;3.13;;;1.05;;
21943;SDS011;11136;48.778;9.126;2022-09-17T14:53:43;3.10;;;0.77;;
21943;SDS011;11136;48.778;9.126;2022-09-17T14:56:11;2.00;;;0.80;;
21943;SDS011;11136;48.778;9.126;2022-09-17T14:58:40;4.05;;;1.42;;
21943;SDS011;11136;48.778;9.126;2022-09-17T15:01:21;1.60;;;0.95;;
21943;SDS011;11136;48.778;9.126;2022-09-17T15:03:48;3.15;;;0.95;;
21943;SDS011;11136;48.778;9.126;2022-09-17T15:06:23;3.13;;;1.00;;
21943;SDS011;11136;48.778;9.126;2022-09-17T15:08:49;2.35;;;1.38;;
21943;SDS011;11136;48.778;9.126;2022-09-17T15:11:15;3.90;;;0.82;;
21943;SDS011;11136;48.778;9.126;2022-09-17T15:13:44;3.17;;;1.02;;
21943;SDS011;11136;48.778;9.126;2022-09-17T15:16:22;1.92;;;0.88;;
21943;SDS011;11136;48.778;9.126;2022-09-17T15:18:52;2.67;;;1.17;;
21943;SDS011;11136;48.778;9.126;2022-09-17T15:21:31;3.33;;;1.20;;
21943;SDS011;11136;48.778;9.126;2022-09-17T15:24:11;3.00;;;1.70;;
21943;SDS011;11136;48.778;9.126;2022-09-17T15:26:57;2.35;;;1.23;;
21943;SDS011;11136;48.778;9.126;2022-09-17T15:29:27;3.08;;;1.15;;
21943;SDS011;11136;48.778;9.126;2022-09-17T15:31:55;2.50;;;1.55;;
21943;SDS011;11136;48.778;9.126;2022-09-17T15:34:21;3.10;;;0.98;;
21943;SDS011;11136;48.778;9.126;2022-09-17T15:37:06;7.68;;;1.92;;
21943;SDS011;11136;48.778;9.126;2022-09-17T15:39:39;2.50;;;1.13;;
21943;SDS011;11136;48.778;9.126;2022-09-17T15:42:15;4.20;;;1.42;;
21943;SDS011;11136;48.778;9.126;2022-09-17T15:44:43;5.45;;;1.70;;
21943;SDS011;11136;48.778;9.126;2022-09-17T15:52:40;4.47;;;1.45;;
21943;SDS011;11136;48.778;9.126;2022-09-17T15:55:25;3.83;;;1.10;;
21943;SDS011;11136;48.778;9.126;2022-09-17T15:58:22;2.03;;;1.25;;
21943;SDS011;11136;48.778;9.126;2022-09-17T16:01:23;3.67;;;1.70;;
21943;SDS011;11136;48.778;9.126;2022-09-17T16:04:00;4.03;;;1.52;;
21943;SDS011;11136;48.778;9.126;2022-09-17T16:06:57;3.00;;;1.15;;
21943;SDS011;11136;48.778;9.126;2022-09-17T16:09:36;2.92;;;1.10;;
21943;SDS011;11136;48.778;9.126;2022-09-17T16:12:07;1.92;;;0.90;;
21943;SDS011;11136;48.778;9.126;2022-09-17T16:14:36;2.65;;;1.30;;
21943;SDS011;11136;48.778;9.126;2022-09-17T16:17:08;1.90;;;1.05;;
21943;SDS011;11136;48.778;9.126;2022-09-17T16:19:46;3.10;;;1.45;;
21943;SDS011;11136;48.778;9.126;2022-09-17T16:22:12;3.40;;;1.30;;
21943;SDS011;11136;48.778;9.126;2022-09-17T16:24:37;4.22;;;1.23;;
21943;SDS011;11136;48.778;9.126;2022-09-17T16:27:03;5.85;;;1.70;;
21943;SDS011;11136;48.778;9.126;2022-09-17T16:29:29;3.00;;;0.98;;
21943;SDS011;11136;48.778;9.126;2022-09-17T16:31:55;2.53;;;1.25;;
21943;SDS011;11136;48.778;9.126;2022-09-17T16:34:21;4.57;;;1.15;;
21943;SDS011;11136;48.778;9.126;2022-09-17T16:36:46;4.28;;;1.25;;
21943;SDS011;11136;48.778;9.126;2022-09-17T16:39:13;5.40;;;1.40;;
21943;SDS011;11136;48.778;9.126;2022-09-17T16:41:39;1.98;;;0.95;;
21943;SDS011;11136;48.778;9.126;2022-09-17T16:44:04;4.95;;;1.30;;
21943;SDS011;11136;48.778;9.126;2022-09-17T16:46:30;2.92;;;0.90;;
21943;SDS011;11136;48.778;9.126;2022-09-17T16:48:57;5.03;;;1.40;;
21943;SDS011;11136;48.778;9.126;2022-09-17T16:51:24;2.90;;;1.17;;
21943;SDS011;11136;48.778;9.126;2022-09-17T16:53:49;4.05;;;1.52;;
21943;SDS011;11136;48.778;9.126;2022-09-17T16:56:15;8.65;;;1.30;;
21943;SDS011;11136;48.778;9.126;2022-09-17T16:58:41;5.75;;;0.93;;
21943;SDS011;11136;48.778;9.126;2022-09-17T17:01:10;4.38;;;1.15;;
21943;SDS011;11136;48.778;9.126;2022-09-17T17:03:38;5.07;;;1.73;;
21943;SDS011;11136;48.778;9.126;2022-09-17T17:06:03;6.53;;;1.77;;
21943;SDS011;11136;48.778;9.126;2022-09-17T17:08:30;3.67;;;1.40;;
21943;SDS011;11136;48.778;9.126;2022-09-17T17:10:56;4.68;;;1.48;;
21943;SDS011;11136;48.778;9.126;2022-09-17T17:13:22;3.35;;;1.77;;
21943;SDS011;11136;48.778;9.126;2022-09-17T17:15:48;5.40;;;2.13;;
21943;SDS011;11136;48.778;9.126;2022-09-17T17:18:13;3.22;;;1.50;;
21943;SDS011;11136;48.778;9.126;2022-09-17T17:20:39;4.20;;;1.50;;
21943;SDS011;11136;48.778;9.126;2022-09-17T17:23:04;9.88;;;2.08;;
21943;SDS011;11136;48.778;9.126;2022-09-17T17:25:30;3.75;;;1.38;;
21943;SDS011;11136;48.778;9.126;2022-09-17T17:27:56;5.00;;;1.27;;
21943;SDS011;11136;48.778;9.126;2022-09-17T17:30:22;2.78;;;1.23;;
21943;SDS011;11136;48.778;9.126;2022-09-17T17:32:48;6.28;;;1.48;;
21943;SDS011;11136;48.778;9.126;2022-09-17T17:35:14;4.97;;;1.42;;
21943;SDS011;11136;48.778;9.126;2022-09-17T17:37:40;4.13;;;1.35;;
21943;SDS011;11136;48.778;9.126;2022-09-17T17:40:06;1.75;;;1.10;;
21943;SDS011;11136;48.778;9.126;2022-09-17T17:42:34;3.20;;;1.45;;
21943;SDS011;11136;48.778;9.126;2022-09-17T17:45:02;2.38;;;1.30;;
21943;SDS011;11136;48.778;9.126;2022-09-17T17:47:29;3.30;;;1.30;;
21943;SDS011;11136;48.778;9.126;2022-09-17T17:49:54;2.38;;;1.50;;
21943;SDS011;11136;48.778;9.126;2022-09-17T17:52:20;4.28;;;1.30;;
21943;SDS011;11136;48.778;9.126;2022-09-17T17:54:46;2.97;;;1.27;;
21943;SDS011;11136;48.778;9.126;2022-09-17T17:57:12;2.45;;;1.27;;
21943;SDS011;11136;48.778;9.126;2022-09-17T17:59:38;2.50;;;0.80;;
21943;SDS011;11136;48.778;9.126;2022-09-17T18:02:03;3.80;;;1.08;;
21943;SDS011;11136;48.778;9.126;2022-09-17T18:04:29;3.85;;;1.30;;
21943;SDS011;11136;48.778;9.126;2022-09-17T18:06:54;1.95;;;1.00;;
21943;SDS011;11136;48.778;9.126;2022-09-17T18:09:20;2.85;;;1.13;;
21943;SDS011;11136;48.778;9.126;2022-09-17T18:11:45;3.35;;;1.10;;
21943;SDS011;11136;48.778;9.126;2022-09-17T18:14:11;5.00;;;1.10;;
21943;SDS011;11136;48.778;9.126;2022-09-17T18:16:37;3.92;;;1.40;;
21943;SDS011;11136;48.778;9.126;2022-09-17T18:19:04;2.80;;;1.10;;
21943;SDS011;11136;48.778;9.126;2022-09-17T18:21:30;2.17;;;1.60;;